Time;durP1;ratioP1;P1;durP2;ratioP2;P2;SDS_P1;SDS_P2;PMS_P1;PMS_P2;Temp;Humidity;BMP_temperature;BMP_pressure;BME280_temperature;BME280_humidity;BME280_pressure;Samples;Min_cycle;Max_cycle;Signal;HPM_P1;HPM_P2
2021/11/30 00:01:00;;;;;;;1.98;0.73;;;4.90;91.80;;;;;;6214244;23;20335;-77
2021/11/30 00:03:25;;;;;;;2.10;0.77;;;4.90;91.80;;;;;;6163118;23;20103;-77
2021/11/30 00:05:51;;;;;;;1.15;0.60;;;4.90;91.80;;;;;;6212268;23;20035;-76
2021/11/30 00:08:19;;;;;;;1.20;0.85;;;4.90;91.80;;;;;;6212924;23;20012;-76
2021/11/30 00:10:46;;;;;;;2.05;0.63;;;4.90;91.80;;;;;;6213736;23;20019;-76
2021/11/30 00:13:16;;;;;;;4.32;1.25;;;5.00;91.80;;;;;;6213185;23;20008;-76
2021/11/30 00:15:42;;;;;;;2.38;1.00;;;4.90;91.70;;;;;;6212754;23;20314;-76
2021/11/30 00:18:08;;;;;;;1.88;0.93;;;4.90;91.70;;;;;;6214086;23;20032;-76
2021/11/30 00:20:36;;;;;;;2.42;1.13;;;4.90;91.70;;;;;;6212138;23;20020;-76
2021/11/30 00:23:02;;;;;;;2.72;1.30;;;4.90;91.70;;;;;;6212448;23;20029;-77
2021/11/30 00:25:28;;;;;;;2.78;1.48;;;4.90;91.70;;;;;;6214214;23;20376;-77
2021/11/30 00:27:53;;;;;;;3.38;1.60;;;4.90;91.70;;;;;;6212651;23;20421;-77
2021/11/30 00:30:21;;;;;;;4.47;1.88;;;4.90;91.70;;;;;;6188172;23;20016;-76
2021/11/30 00:32:47;;;;;;;4.30;1.83;;;4.90;91.70;;;;;;6213156;23;20008;-77
2021/11/30 00:35:13;;;;;;;3.65;2.00;;;4.90;91.60;;;;;;6214447;23;19996;-76
2021/11/30 00:37:38;;;;;;;4.88;2.08;;;5.00;91.60;;;;;;6212548;23;20011;-77
2021/11/30 00:40:05;;;;;;;6.05;2.30;;;4.90;91.60;;;;;;6206847;23;20005;-77
2021/11/30 00:42:30;;;;;;;4.90;2.20;;;4.90;91.60;;;;;;6212638;23;20047;-76
2021/11/30 00:45:00;;;;;;;4.40;2.17;;;4.90;91.60;;;;;;6214785;23;20012;-77
2021/11/30 00:47:29;;;;;;;3.88;1.77;;;4.90;91.60;;;;;;6212361;23;20004;-76
2021/11/30 00:49:56;;;;;;;3.60;1.80;;;4.90;91.60;;;;;;6188159;23;20048;-76
2021/11/30 00:52:22;;;;;;;4.20;2.05;;;5.00;91.60;;;;;;6214557;23;20100;-77
2021/11/30 00:54:49;;;;;;;3.92;1.90;;;4.90;91.80;;;;;;6212508;23;20004;-76
2021/11/30 00:57:16;;;;;;;5.13;2.10;;;4.90;91.50;;;;;;6163384;23;20015;-76
2021/11/30 00:59:42;;;;;;;4.30;2.10;;;4.90;91.50;;;;;;6212619;23;20084;-77
2021/11/30 01:02:08;;;;;;;3.47;1.58;;;4.90;91.50;;;;;;6212698;23;20016;-77
2021/11/30 01:04:33;;;;;;;3.50;1.85;;;5.00;91.50;;;;;;6187045;23;20019;-77
2021/11/30 01:06:59;;;;;;;4.30;2.20;;;5.00;91.50;;;;;;6211975;23;20043;-76
2021/11/30 01:09:25;;;;;;;4.30;2.22;;;4.90;91.40;;;;;;6206264;23;20016;-77
2021/11/30 01:11:51;;;;;;;4.97;1.90;;;5.00;91.40;;;;;;6206478;23;20009;-77
2021/11/30 01:14:17;;;;;;;3.47;1.75;;;5.10;91.30;;;;;;6213786;23;20005;-76
2021/11/30 01:16:45;;;;;;;4.50;1.77;;;5.00;91.30;;;;;;6209278;23;20084;-77
2021/11/30 01:19:11;;;;;;;4.75;1.92;;;5.00;91.30;;;;;;6187591;23;20015;-77
2021/11/30 01:21:38;;;;;;;3.95;1.90;;;5.00;91.30;;;;;;6218585;23;20522;-77
2021/11/30 01:24:06;;;;;;;4.88;1.90;;;5.00;91.30;;;;;;6213782;23;20000;-77
2021/11/30 01:26:32;;;;;;;3.53;1.90;;;5.00;91.20;;;;;;6213769;23;20013;-76
2021/11/30 01:28:58;;;;;;;4.05;2.05;;;4.90;91.20;;;;;;6196419;23;20016;-77
2021/11/30 01:31:24;;;;;;;4.53;2.08;;;4.90;91.20;;;;;;6213214;23;20005;-76
2021/11/30 01:33:50;;;;;;;3.13;1.90;;;4.90;91.20;;;;;;6214398;23;19997;-77
2021/11/30 01:36:16;;;;;;;4.85;2.08;;;4.90;91.20;;;;;;6211957;23;20412;-77
2021/11/30 01:38:42;;;;;;;5.25;2.10;;;4.90;91.20;;;;;;6213700;23;20071;-76
2021/11/30 01:41:09;;;;;;;3.83;1.90;;;4.80;91.20;;;;;;6205933;23;20036;-76
2021/11/30 01:43:40;;;;;;;6.18;2.13;;;4.70;91.20;;;;;;6211833;23;20005;-76
2021/11/30 01:46:11;;;;;;;5.35;2.20;;;4.80;91.20;;;;;;6212011;23;20001;-76
2021/11/30 01:51:26;;;;;;;4.18;1.92;;;4.70;91.30;;;;;;6213198;23;20016;-76
2021/11/30 01:53:54;;;;;;;3.45;1.98;;;4.60;91.30;;;;;;6212244;23;20012;-76
2021/11/30 01:56:20;;;;;;;5.05;2.00;;;4.60;91.30;;;;;;6214097;23;20387;-76
2021/11/30 01:58:48;;;;;;;6.10;2.30;;;4.50;91.30;;;;;;6213210;23;20452;-77
2021/11/30 02:01:14;;;;;;;6.70;2.95;;;4.50;91.40;;;;;;6213616;23;20013;-76
2021/11/30 02:03:40;;;;;;;7.03;3.10;;;4.40;91.40;;;;;;6214658;23;20008;-76
2021/11/30 02:06:06;;;;;;;6.35;2.92;;;4.40;91.70;;;;;;6213591;23;20020;-76
2021/11/30 02:08:32;;;;;;;9.50;3.25;;;4.30;91.50;;;;;;6215452;23;20012;-76
2021/11/30 02:10:58;;;;;;;7.78;3.03;;;4.20;91.50;;;;;;6164354;23;20001;-77
2021/11/30 02:13:25;;;;;;;7.65;3.45;;;4.20;91.60;;;;;;6214516;23;20004;-77
2021/11/30 02:15:55;;;;;;;9.07;3.17;;;4.20;91.60;;;;;;6214820;23;20035;-77
2021/11/30 02:18:23;;;;;;;6.90;3.05;;;4.10;91.70;;;;;;6213286;23;20012;-76
2021/11/30 02:20:54;;;;;;;8.13;3.85;;;4.00;91.70;;;;;;6214337;23;20051;-76
2021/11/30 02:23:32;;;;;;;9.20;3.80;;;4.00;91.70;;;;;;6213541;23;20007;-77
2021/11/30 02:26:07;;;;;;;8.85;3.45;;;4.00;91.80;;;;;;6190485;23;20002;-77
2021/11/30 02:28:33;;;;;;;8.20;3.35;;;3.90;91.80;;;;;;6165567;23;20005;-77
2021/11/30 02:30:59;;;;;;;6.68;2.97;;;4.00;91.80;;;;;;6188155;23;19996;-76
2021/11/30 02:33:25;;;;;;;6.45;2.90;;;4.00;91.80;;;;;;6212895;23;20340;-76
2021/11/30 02:35:52;;;;;;;6.90;2.90;;;4.10;91.90;;;;;;6214354;23;19997;-76
2021/11/30 02:38:17;;;;;;;5.78;2.72;;;3.90;91.80;;;;;;6214223;23;20023;-77
2021/11/30 02:40:43;;;;;;;6.20;2.53;;;4.00;91.90;;;;;;6212776;23;20005;-76
2021/11/30 02:43:09;;;;;;;6.30;2.47;;;3.90;91.90;;;;;;6214695;23;20437;-76
2021/11/30 02:45:35;;;;;;;6.15;2.47;;;3.90;91.90;;;;;;6215604;23;20019;-77
2021/11/30 02:48:01;;;;;;;6.43;3.03;;;4.00;91.90;;;;;;6203509;23;20009;-76
2021/11/30 02:50:28;;;;;;;8.90;3.50;;;3.90;91.90;;;;;;6214031;23;20021;-76
2021/11/30 02:52:56;;;;;;;6.40;3.28;;;3.90;91.90;;;;;;6187793;23;20008;-77
2021/11/30 02:55:22;;;;;;;5.75;2.70;;;3.90;91.90;;;;;;6212455;23;20016;-77
2021/11/30 02:57:48;;;;;;;5.05;2.50;;;4.00;92.00;;;;;;6215063;23;20020;-76
2021/11/30 03:00:15;;;;;;;4.55;2.63;;;3.90;92.00;;;;;;6238432;23;20007;-77
2021/11/30 03:02:41;;;;;;;5.10;2.50;;;4.00;92.00;;;;;;6213394;23;20013;-77
2021/11/30 03:05:07;;;;;;;5.90;2.33;;;4.00;92.00;;;;;;6214656;23;20529;-77
2021/11/30 03:07:37;;;;;;;5.32;2.33;;;3.90;92.00;;;;;;6187836;23;20004;-78
2021/11/30 03:10:12;;;;;;;5.93;2.88;;;4.00;92.00;;;;;;6212978;23;20016;-77
2021/11/30 03:12:39;;;;;;;5.40;2.75;;;4.00;92.00;;;;;;6214509;23;20302;-78
2021/11/30 03:15:10;;;;;;;6.15;2.90;;;4.00;92.00;;;;;;6215948;23;20001;-77
2021/11/30 03:17:36;;;;;;;6.15;3.17;;;4.00;92.10;;;;;;6213199;23;20008;-77
2021/11/30 03:20:04;;;;;;;5.15;3.05;;;4.00;92.10;;;;;;6215958;23;20482;-77
2021/11/30 03:22:29;;;;;;;5.13;2.97;;;4.00;92.10;;;;;;6213099;23;20008;-76
2021/11/30 03:24:55;;;;;;;4.47;2.70;;;4.10;92.10;;;;;;6215715;23;20428;-77
2021/11/30 03:27:21;;;;;;;5.55;2.78;;;4.10;92.10;;;;;;6188329;23;20031;-77
2021/11/30 03:29:46;;;;;;;4.75;2.70;;;4.10;92.10;;;;;;6209555;23;20087;-77
2021/11/30 03:33:58;;;;;;;4.93;2.80;;;4.20;92.10;;;;;;6166672;23;20008;-77
2021/11/30 03:34:58;;;;;;;4.72;2.85;;;4.20;92.10;;;;;;6192815;23;20009;-77
2021/11/30 03:37:23;;;;;;;5.05;2.95;;;4.20;92.10;;;;;;6215948;23;20087;-77
2021/11/30 03:39:49;;;;;;;4.93;2.80;;;4.30;92.10;;;;;;6190100;23;20064;-77
2021/11/30 03:42:15;;;;;;;4.72;2.80;;;4.20;92.10;;;;;;6218357;23;20376;-77
2021/11/30 03:44:40;;;;;;;4.70;2.70;;;4.20;92.10;;;;;;6216802;23;20020;-77
2021/11/30 03:47:06;;;;;;;4.95;2.97;;;4.30;92.10;;;;;;6164761;23;20008;-77
2021/11/30 03:49:32;;;;;;;5.15;2.65;;;4.30;92.10;;;;;;6220189;23;20058;-77
2021/11/30 03:51:57;;;;;;;4.90;2.80;;;4.40;92.10;;;;;;6218960;23;19997;-77
2021/11/30 03:54:23;;;;;;;4.82;3.00;;;4.40;92.10;;;;;;6215363;23;20360;-77
2021/11/30 03:56:49;;;;;;;5.28;3.53;;;4.40;92.10;;;;;;6215440;23;20001;-77
2021/11/30 03:59:15;;;;;;;4.88;3.08;;;4.40;92.10;;;;;;6216012;23;20036;-77
2021/11/30 04:01:41;;;;;;;4.55;3.15;;;4.50;92.10;;;;;;6213661;23;20420;-78
2021/11/30 04:04:27;;;;;;;4.97;3.17;;;4.50;92.10;;;;;;6215762;23;20008;-77
2021/11/30 04:06:55;;;;;;;4.32;2.53;;;4.50;92.10;;;;;;6215889;23;20000;-77
2021/11/30 04:09:23;;;;;;;3.97;2.35;;;4.60;92.10;;;;;;6214002;23;20017;-77
2021/11/30 04:11:49;;;;;;;4.65;2.67;;;4.70;92.20;;;;;;6215346;23;20424;-77
2021/11/30 04:14:16;;;;;;;4.80;2.67;;;4.70;92.20;;;;;;6215283;23;20024;-78
2021/11/30 04:16:42;;;;;;;5.40;2.90;;;4.80;92.20;;;;;;6194855;23;19985;-77
2021/11/30 04:19:08;;;;;;;3.58;2.33;;;4.80;92.20;;;;;;6220130;23;20013;-77
2021/11/30 04:21:34;;;;;;;3.50;2.42;;;4.90;92.20;;;;;;6217829;23;20363;-78
2021/11/30 04:24:00;;;;;;;4.68;2.70;;;4.90;92.20;;;;;;6215294;23;20099;-78
2021/11/30 04:26:26;;;;;;;4.53;2.60;;;5.00;92.20;;;;;;6215395;23;20013;-77
2021/11/30 04:28:52;;;;;;;3.60;2.45;;;5.00;92.20;;;;;;6220672;23;20009;-77
2021/11/30 04:31:18;;;;;;;3.25;2.10;;;5.10;92.20;;;;;;6170433;23;20009;-78
2021/11/30 04:33:43;;;;;;;3.53;2.40;;;5.10;92.20;;;;;;6221602;23;20008;-78
2021/11/30 04:36:09;;;;;;;3.35;2.10;;;5.10;92.20;;;;;;6205294;23;20013;-77
2021/11/30 04:38:36;;;;;;;2.50;1.70;;;5.30;92.20;;;;;;6221702;23;20015;-78
2021/11/30 04:41:03;;;;;;;2.70;1.77;;;5.30;92.20;;;;;;6221758;23;20024;-78
2021/11/30 04:43:34;;;;;;;2.70;1.80;;;5.40;92.20;;;;;;6220868;23;20004;-77
2021/11/30 04:46:07;;;;;;;2.30;1.70;;;5.50;92.20;;;;;;6221157;23;20011;-77
2021/11/30 04:48:34;;;;;;;3.40;1.60;;;5.60;92.10;;;;;;6194938;23;20531;-78
2021/11/30 04:51:02;;;;;;;1.63;1.33;;;5.70;92.10;;;;;;6223781;23;20004;-78
2021/11/30 04:53:31;;;;;;;2.08;1.70;;;5.80;92.10;;;;;;6208938;23;20076;-78
2021/11/30 04:55:56;;;;;;;1.88;1.58;;;5.80;92.10;;;;;;6219524;23;20005;-78
2021/11/30 04:58:22;;;;;;;2.30;1.50;;;5.90;92.10;;;;;;6218075;23;20001;-77
2021/11/30 05:00:48;;;;;;;1.85;1.50;;;5.90;92.10;;;;;;6222636;23;20005;-77
2021/11/30 05:03:14;;;;;;;1.90;1.45;;;6.00;92.10;;;;;;6193313;23;20076;-77
2021/11/30 05:05:41;;;;;;;1.70;1.30;;;6.00;92.10;;;;;;6218996;23;20000;-78
2021/11/30 05:08:08;;;;;;;1.90;1.38;;;6.00;92.10;;;;;;6218958;23;20302;-78
2021/11/30 05:10:34;;;;;;;2.00;1.50;;;6.00;92.10;;;;;;6216857;23;20016;-78
2021/11/30 05:13:01;;;;;;;1.90;1.40;;;6.20;92.20;;;;;;6220362;23;19993;-78
2021/11/30 05:15:28;;;;;;;1.40;1.10;;;6.20;92.20;;;;;;6193294;23;20012;-78
2021/11/30 05:17:54;;;;;;;2.08;1.40;;;6.30;92.20;;;;;;6218106;23;20452;-78
2021/11/30 05:20:20;;;;;;;1.20;1.10;;;6.30;92.20;;;;;;6192243;23;20100;-78
2021/11/30 05:22:45;;;;;;;2.08;1.40;;;6.30;92.30;;;;;;6192985;23;20008;-79
2021/11/30 05:25:12;;;;;;;1.73;1.30;;;6.40;92.30;;;;;;6194574;23;20008;-78
2021/11/30 05:27:40;;;;;;;1.63;1.30;;;6.40;92.30;;;;;;6191828;23;20015;-77
2021/11/30 05:30:09;;;;;;;2.13;1.30;;;6.40;92.30;;;;;;6219455;23;20009;-77
2021/11/30 05:32:35;;;;;;;1.20;1.08;;;6.50;92.30;;;;;;6218652;23;19996;-79
2021/11/30 05:35:06;;;;;;;1.50;1.20;;;6.50;92.30;;;;;;6219772;23;20023;-78
2021/11/30 05:37:32;;;;;;;1.55;1.30;;;6.50;92.30;;;;;;6221884;23;20368;-79
2021/11/30 05:39:58;;;;;;;1.88;1.20;;;6.60;92.40;;;;;;6220256;23;20071;-77
2021/11/30 05:42:24;;;;;;;1.98;1.35;;;6.60;92.40;;;;;;6195264;23;20006;-78
2021/11/30 05:44:51;;;;;;;1.80;1.30;;;6.70;92.40;;;;;;6223566;23;20072;-78
2021/11/30 05:47:17;;;;;;;1.70;1.20;;;6.70;92.50;;;;;;6224930;23;20000;-78
2021/11/30 05:49:43;;;;;;;1.77;1.40;;;6.70;92.40;;;;;;6215350;23;20023;-79
2021/11/30 05:52:09;;;;;;;1.77;1.30;;;6.80;92.50;;;;;;6191088;23;20072;-79
2021/11/30 05:54:36;;;;;;;1.65;1.20;;;6.70;92.50;;;;;;6230043;23;20044;-78
2021/11/30 05:57:03;;;;;;;1.75;1.30;;;6.80;92.50;;;;;;6200946;23;20001;-79
2021/11/30 05:59:35;;;;;;;1.85;1.30;;;7.00;92.60;;;;;;6172819;23;20005;-78
2021/11/30 06:02:01;;;;;;;1.40;1.20;;;7.00;92.60;;;;;;6224408;23;19997;-79
2021/11/30 06:04:27;;;;;;;1.65;1.20;;;6.90;92.60;;;;;;6223822;23;20007;-79
2021/11/30 06:06:53;;;;;;;1.67;1.38;;;6.90;92.60;;;;;;6218172;23;20013;-79
2021/11/30 06:09:18;;;;;;;1.40;1.20;;;6.90;92.60;;;;;;6172760;23;20008;-79
2021/11/30 06:11:45;;;;;;;1.75;1.30;;;6.90;92.60;;;;;;6221615;23;20012;-79
2021/11/30 06:14:11;;;;;;;1.95;1.50;;;6.90;92.60;;;;;;6215629;23;20025;-79
2021/11/30 06:16:37;;;;;;;1.60;1.25;;;7.00;92.60;;;;;;6225006;23;20005;-80
2021/11/30 06:19:03;;;;;;;1.73;1.10;;;7.10;92.70;;;;;;6199916;23;20066;-77
2021/11/30 06:21:28;;;;;;;1.08;0.98;;;7.10;92.70;;;;;;6198951;23;20024;-78
2021/11/30 06:23:54;;;;;;;1.23;1.05;;;7.10;92.70;;;;;;6221560;23;20007;-79
2021/11/30 06:26:20;;;;;;;1.70;1.08;;;7.10;92.70;;;;;;6174578;23;20004;-80
2021/11/30 06:28:46;;;;;;;1.00;0.90;;;7.20;92.70;;;;;;6222184;23;20376;-79
2021/11/30 06:31:12;;;;;;;1.23;1.02;;;7.10;92.70;;;;;;6220244;23;20001;-80
2021/11/30 06:33:38;;;;;;;1.38;1.17;;;7.20;92.80;;;;;;6207033;23;20016;-79
2021/11/30 06:36:04;;;;;;;1.50;1.20;;;7.20;92.80;;;;;;6231111;23;19996;-80
2021/11/30 06:38:31;;;;;;;1.20;0.90;;;7.30;92.80;;;;;;6205235;23;19985;-77
2021/11/30 06:40:56;;;;;;;1.48;1.10;;;7.30;92.80;;;;;;6178104;23;20042;-80
2021/11/30 06:43:23;;;;;;;2.03;1.20;;;7.30;92.80;;;;;;6229944;23;19980;-80
2021/11/30 06:45:49;;;;;;;1.73;0.98;;;7.40;92.80;;;;;;6230144;23;20028;-80
2021/11/30 06:48:16;;;;;;;1.73;1.30;;;7.50;93.10;;;;;;6204158;23;20001;-80
2021/11/30 06:50:43;;;;;;;1.27;1.10;;;7.50;92.80;;;;;;6233421;23;20000;-80
2021/11/30 06:53:08;;;;;;;1.50;1.10;;;7.50;92.80;;;;;;6228904;23;20084;-80
2021/11/30 06:55:34;;;;;;;1.00;0.90;;;7.60;92.80;;;;;;6204906;23;20005;-80
2021/11/30 06:58:00;;;;;;;1.65;0.98;;;7.60;92.80;;;;;;6179408;23;20318;-80
2021/11/30 07:00:27;;;;;;;1.00;0.70;;;7.70;92.80;;;;;;6223637;23;20008;-80
2021/11/30 07:02:52;;;;;;;1.08;0.88;;;7.80;92.80;;;;;;6230835;23;20409;-80
2021/11/30 07:05:25;;;;;;;1.20;0.90;;;7.90;92.80;;;;;;6232265;23;20023;-80
2021/11/30 07:10:41;;;;;;;1.13;1.02;;;7.90;92.70;;;;;;6223783;23;20016;-78
2021/11/30 07:15:58;;;;;;;2.72;1.20;;;8.10;92.70;;;;;;6199883;23;20057;-81
2021/11/30 07:18:25;;;;;;;1.40;1.10;;;8.20;92.70;;;;;;6207661;23;20000;-81
2021/11/30 07:20:51;;;;;;;1.70;1.08;;;8.20;92.60;;;;;;6226855;23;19993;-81
2021/11/30 07:23:18;;;;;;;1.50;1.10;;;8.20;92.70;;;;;;6176863;23;20016;-81
2021/11/30 07:25:44;;;;;;;1.30;1.20;;;8.20;92.70;;;;;;6233305;23;19997;-80
2021/11/30 07:28:13;;;;;;;1.13;0.93;;;8.30;92.70;;;;;;6219533;23;20001;-81
2021/11/30 07:30:39;;;;;;;1.17;0.90;;;8.30;92.70;;;;;;6223006;23;20016;-79
2021/11/30 07:33:05;;;;;;;1.95;1.35;;;8.40;92.80;;;;;;6226234;23;20344;-78
2021/11/30 07:35:31;;;;;;;2.05;1.20;;;8.40;92.80;;;;;;6216902;23;20012;-77
2021/11/30 07:37:57;;;;;;;1.88;1.27;;;8.40;92.80;;;;;;6163035;23;20012;-78
2021/11/30 07:40:26;;;;;;;3.45;1.45;;;8.50;92.80;;;;;;6214612;23;20001;-79
2021/11/30 07:42:51;;;;;;;2.78;1.27;;;8.60;92.90;;;;;;6212493;23;19997;-78
2021/11/30 07:45:18;;;;;;;1.60;1.20;;;8.50;92.80;;;;;;6213060;23;20000;-78
2021/11/30 07:47:43;;;;;;;2.72;1.40;;;8.50;92.90;;;;;;6214516;23;20000;-76
2021/11/30 07:50:10;;;;;;;2.00;1.40;;;8.60;92.90;;;;;;6187391;23;20071;-79
2021/11/30 07:52:39;;;;;;;3.65;1.77;;;8.70;92.90;;;;;;6186965;23;20019;-78
2021/11/30 07:55:06;;;;;;;3.78;1.52;;;8.60;92.90;;;;;;6188191;23;20016;-77
2021/11/30 07:57:32;;;;;;;3.60;1.85;;;8.60;92.90;;;;;;6188464;23;20036;-78
2021/11/30 08:00:01;;;;;;;2.45;1.30;;;8.70;92.90;;;;;;6214229;23;20012;-77
2021/11/30 08:02:27;;;;;;;2.38;1.50;;;8.60;92.90;;;;;;6103209;23;20048;-78
2021/11/30 08:04:53;;;;;;;2.42;1.50;;;8.70;93.00;;;;;;6079610;23;20017;-77
2021/11/30 08:07:19;;;;;;;2.72;1.23;;;8.70;93.30;;;;;;6079608;23;20014;-77
2021/11/30 08:09:49;;;;;;;1.95;1.25;;;8.70;93.00;;;;;;6080143;23;20013;-77
2021/11/30 08:12:16;;;;;;;1.77;1.08;;;8.70;93.00;;;;;;6104203;23;20384;-78
2021/11/30 08:14:41;;;;;;;2.33;1.42;;;8.70;93.30;;;;;;6103196;23;20457;-78
2021/11/30 08:17:13;;;;;;;2.67;1.55;;;8.80;93.10;;;;;;6078714;23;20014;-77
2021/11/30 08:19:41;;;;;;;3.33;1.60;;;8.80;93.10;;;;;;6127706;23;20370;-78
2021/11/30 08:22:07;;;;;;;2.47;1.40;;;8.80;93.10;;;;;;6079126;23;20441;-79
2021/11/30 08:24:35;;;;;;;2.05;1.20;;;8.80;93.10;;;;;;6103564;23;20005;-79
2021/11/30 08:27:06;;;;;;;1.95;1.15;;;8.80;93.10;;;;;;6098176;23;20056;-79
2021/11/30 08:30:14;;;;;;;3.40;1.27;;;8.90;93.20;;;;;;6051508;23;20080;-78
2021/11/30 08:32:41;;;;;;;3.08;1.30;;;8.80;93.20;;;;;;6077067;23;20121;-78
2021/11/30 08:35:13;;;;;;;2.55;1.35;;;8.90;93.20;;;;;;6126823;23;20001;-81
2021/11/30 08:37:38;;;;;;;1.83;1.20;;;8.90;93.20;;;;;;6092246;23;20030;-78
2021/11/30 08:40:07;;;;;;;2.10;1.05;;;8.90;93.20;;;;;;6103477;23;20017;-79
2021/11/30 08:42:33;;;;;;;1.90;0.93;;;9.10;93.20;;;;;;6073935;23;20124;-78
2021/11/30 08:45:06;;;;;;;1.50;1.25;;;8.90;93.20;;;;;;6122401;23;20073;-79
2021/11/30 08:47:31;;;;;;;1.65;1.20;;;9.00;93.20;;;;;;6122608;23;20017;-78
2021/11/30 08:50:01;;;;;;;3.33;1.30;;;8.90;93.20;;;;;;6122307;23;20022;-77
2021/11/30 08:53:09;;;;;;;2.05;1.10;;;8.90;93.20;;;;;;6047526;23;20018;-78
2021/11/30 08:55:39;;;;;;;1.90;1.20;;;9.00;93.30;;;;;;6127228;23;20024;-81
2021/11/30 08:58:05;;;;;;;1.75;1.25;;;9.00;93.20;;;;;;6134920;23;20029;-77
2021/11/30 09:00:33;;;;;;;1.92;1.05;;;9.10;93.30;;;;;;6181722;23;20097;-79
2021/11/30 09:03:04;;;;;;;2.22;1.20;;;9.10;93.20;;;;;;6106737;23;20436;-80
2021/11/30 09:05:30;;;;;;;1.98;1.10;;;9.10;93.20;;;;;;6109669;23;20035;-79
2021/11/30 09:08:11;;;;;;;1.77;1.10;;;9.10;93.30;;;;;;6143678;23;20009;-83
2021/11/30 09:10:37;;;;;;;;;;;9.10;93.30;;;;;;6156800;23;20033;-76
2021/11/30 09:13:04;;;;;;;2.15;1.10;;;9.20;93.30;;;;;;6128813;23;19947;-79
2021/11/30 09:15:30;;;;;;;1.40;0.80;;;9.10;93.20;;;;;;6127382;23;20771;-80
2021/11/30 09:17:56;;;;;;;2.10;1.10;;;9.10;93.20;;;;;;6077020;23;20009;-79
2021/11/30 09:20:25;;;;;;;2.45;1.02;;;9.10;93.20;;;;;;6129136;23;20025;-80
2021/11/30 09:22:55;;;;;;;1.55;1.10;;;9.20;93.30;;;;;;6179891;23;20012;-82
2021/11/30 09:25:22;;;;;;;2.78;1.10;;;9.30;93.30;;;;;;6212273;23;20016;-81
2021/11/30 09:27:48;;;;;;;1.20;0.93;;;9.30;93.30;;;;;;6212348;23;20005;-80
2021/11/30 09:30:21;;;;;;;1.50;1.00;;;9.30;93.30;;;;;;6162887;23;20008;-81
2021/11/30 09:32:53;;;;;;;0.98;0.80;;;9.30;93.30;;;;;;6212160;23;20017;-80
2021/11/30 09:35:21;;;;;;;2.08;0.95;;;9.40;93.40;;;;;;6212807;23;20005;-78
2021/11/30 09:37:53;;;;;;;1.73;1.05;;;9.50;93.30;;;;;;6212682;23;20001;-79
2021/11/30 09:40:23;;;;;;;;;;;9.40;93.30;;;;;;6164243;23;20013;-79
2021/11/30 09:42:53;;;;;;;2.03;1.10;;;9.30;93.20;;;;;;6211710;23;20358;-80
2021/11/30 09:45:23;;;;;;;1.83;0.70;;;9.40;93.20;;;;;;6213668;23;20016;-80
2021/11/30 09:47:55;;;;;;;1.52;0.80;;;9.40;93.30;;;;;;6117444;23;20029;-81
2021/11/30 09:50:38;;;;;;;1.98;0.80;;;9.50;93.30;;;;;;6131115;23;20028;-80
2021/11/30 09:53:04;;;;;;;2.00;0.82;;;9.40;93.30;;;;;;6185527;23;20024;-78
2021/11/30 09:55:30;;;;;;;0.65;0.60;;;9.50;93.30;;;;;;6193173;23;20028;-79
2021/11/30 09:57:56;;;;;;;1.45;0.80;;;9.40;93.30;;;;;;6184262;23;20035;-78
2021/11/30 10:00:23;;;;;;;1.77;0.90;;;9.50;93.40;;;;;;6164956;23;20067;-76
2021/11/30 10:02:50;;;;;;;1.25;0.65;;;9.50;93.40;;;;;;6187867;23;20013;-79
2021/11/30 10:05:18;;;;;;;1.42;0.85;;;9.50;93.40;;;;;;6184742;23;20120;-79
2021/11/30 10:07:48;;;;;;;1.38;0.70;;;9.50;93.40;;;;;;6168461;23;20329;-79
2021/11/30 10:10:19;;;;;;;0.35;0.35;;;9.60;93.40;;;;;;6190073;23;20022;-77
2021/11/30 10:13:07;;;;;;;1.02;0.50;;;9.60;93.40;;;;;;6171905;23;20025;-79
2021/11/30 10:15:52;;;;;;;0.55;0.55;;;9.60;93.70;;;;;;6150646;23;20606;-79
2021/11/30 10:18:37;;;;;;;0.55;0.45;;;9.60;93.40;;;;;;6156669;23;20021;-79
2021/11/30 10:21:23;;;;;;;0.75;0.40;;;9.60;93.50;;;;;;6189358;23;20994;-79
2021/11/30 10:23:56;;;;;;;0.60;0.40;;;9.50;93.50;;;;;;6171857;23;20008;-79
2021/11/30 10:26:28;;;;;;;0.75;0.28;;;9.40;93.40;;;;;;6171377;23;20033;-76
2021/11/30 10:28:58;;;;;;;0.43;0.20;;;9.50;93.50;;;;;;6162443;23;20013;-82
2021/11/30 10:31:30;;;;;;;0.28;0.20;;;9.40;93.50;;;;;;6166743;23;20012;-81
2021/11/30 10:34:30;;;;;;;0.38;0.30;;;9.40;93.50;;;;;;6182582;23;20020;-81
2021/11/30 10:37:10;;;;;;;0.15;0.15;;;9.40;93.60;;;;;;6157551;23;20098;-79
2021/11/30 10:39:39;;;;;;;0.20;0.10;;;9.40;93.60;;;;;;6134126;23;20013;-80
2021/11/30 10:42:23;;;;;;;0.00;0.00;;;9.20;93.60;;;;;;6136318;23;20128;-79
2021/11/30 10:44:53;;;;;;;0.10;0.10;;;9.40;93.70;;;;;;6192199;23;20060;-80
2021/11/30 10:47:23;;;;;;;0.10;0.10;;;9.40;93.70;;;;;;6100711;23;20024;-81
2021/11/30 10:49:58;;;;;;;0.10;0.10;;;9.60;93.70;;;;;;6098886;23;20492;-81
2021/11/30 10:52:27;;;;;;;0.00;0.00;;;9.40;93.70;;;;;;6100530;23;20014;-80
2021/11/30 10:55:13;;;;;;;0.15;0.15;;;9.40;93.70;;;;;;6109147;23;20020;-80
2021/11/30 10:57:41;;;;;;;0.10;0.10;;;9.30;93.70;;;;;;6134754;23;20073;-79
2021/11/30 11:00:30;;;;;;;0.10;0.10;;;9.30;93.70;;;;;;6130491;23;20028;-80
2021/11/30 11:03:01;;;;;;;0.10;0.10;;;9.40;93.70;;;;;;6113485;23;20050;-77
2021/11/30 11:05:41;;;;;;;0.38;0.10;;;9.30;93.70;;;;;;6187021;23;20068;-77
2021/11/30 11:08:11;;;;;;;0.10;0.10;;;9.30;93.70;;;;;;6199939;23;20023;-78
2021/11/30 11:10:40;;;;;;;0.10;0.10;;;9.30;93.70;;;;;;6204832;23;20009;-77
2021/11/30 11:13:19;;;;;;;0.25;0.25;;;9.20;93.70;;;;;;6200189;23;20013;-77
2021/11/30 11:15:45;;;;;;;0.10;0.10;;;9.20;93.70;;;;;;6203231;23;20036;-77
2021/11/30 11:18:22;;;;;;;0.65;0.10;;;9.20;93.80;;;;;;6219022;23;20024;-74
2021/11/30 11:20:49;;;;;;;0.10;0.10;;;9.20;94.10;;;;;;6235320;23;20319;-77
2021/11/30 11:23:23;;;;;;;0.10;0.10;;;9.10;93.80;;;;;;6234599;23;20009;-77
2021/11/30 11:25:53;;;;;;;0.30;0.20;;;9.20;93.80;;;;;;6227413;23;20420;-80
2021/11/30 11:29:15;;;;;;;0.57;0.20;;;9.20;93.80;;;;;;6133096;23;20017;-80
2021/11/30 11:31:44;;;;;;;0.20;0.20;;;9.20;93.80;;;;;;6139764;23;20021;-78
2021/11/30 11:34:13;;;;;;;1.27;0.20;;;9.20;93.70;;;;;;6115096;23;20005;-77
2021/11/30 11:36:42;;;;;;;0.10;0.10;;;9.10;93.70;;;;;;6103374;23;20014;-77
2021/11/30 11:39:09;;;;;;;0.20;0.20;;;9.00;93.80;;;;;;6132342;23;20001;-79
2021/11/30 11:41:34;;;;;;;0.13;0.10;;;9.00;93.80;;;;;;6132798;23;20468;-79
2021/11/30 11:44:03;;;;;;;0.52;0.10;;;9.10;93.80;;;;;;6130093;23;20072;-81
2021/11/30 11:46:37;;;;;;;0.50;0.15;;;9.00;93.80;;;;;;6153394;23;20043;-80
2021/11/30 11:49:11;;;;;;;1.17;0.20;;;9.00;93.80;;;;;;6181405;23;20049;-79
2021/11/30 11:51:44;;;;;;;1.27;0.30;;;9.10;93.80;;;;;;6156810;23;20017;-80
2021/11/30 11:54:35;;;;;;;1.65;0.28;;;9.00;93.80;;;;;;6131353;23;20178;-78
2021/11/30 11:57:10;;;;;;;0.20;0.20;;;8.90;93.80;;;;;;6157092;23;20128;-80
2021/11/30 11:59:39;;;;;;;0.15;0.10;;;9.00;93.80;;;;;;6088745;23;20092;-80
2021/11/30 12:02:19;;;;;;;0.63;0.20;;;9.00;93.80;;;;;;6146535;23;20353;-80
2021/11/30 12:04:46;;;;;;;0.17;0.17;;;9.00;93.80;;;;;;6146870;23;20009;-81
2021/11/30 12:07:12;;;;;;;0.10;0.10;;;8.90;93.80;;;;;;6133851;23;20018;-81
2021/11/30 12:09:38;;;;;;;0.10;0.10;;;9.10;93.80;;;;;;6134080;23;20022;-81
2021/11/30 12:15:07;;;;;;;0.50;0.20;;;8.90;93.80;;;;;;6008380;23;20039;-80
2021/11/30 12:17:35;;;;;;;0.32;0.20;;;8.90;93.80;;;;;;6014592;23;20007;-82
2021/11/30 12:20:13;;;;;;;0.20;0.20;;;9.00;93.80;;;;;;6018488;23;20015;-78
2021/11/30 12:22:49;;;;;;;0.55;0.10;;;9.00;93.80;;;;;;5997345;23;20409;-78
2021/11/30 12:25:44;;;;;;;0.38;0.20;;;8.90;93.80;;;;;;6035746;23;20031;-78
2021/11/30 12:28:10;;;;;;;0.10;0.10;;;9.00;93.80;;;;;;6025430;23;20016;-79
2021/11/30 12:30:43;;;;;;;0.10;0.10;;;9.00;93.80;;;;;;6018019;23;20030;-76
2021/11/30 12:33:22;;;;;;;0.30;0.20;;;9.00;93.80;;;;;;5995063;23;20034;-78
2021/11/30 12:35:55;;;;;;;0.08;0.05;;;8.90;93.80;;;;;;6035534;23;20054;-78
2021/11/30 12:38:39;;;;;;;0.45;0.10;;;9.00;93.80;;;;;;6035679;23;20353;-78
2021/11/30 12:41:29;;;;;;;0.20;0.10;;;9.00;93.80;;;;;;6063758;23;20014;-79
2021/11/30 12:44:30;;;;;;;0.17;0.10;;;9.00;93.80;;;;;;5998668;23;20063;-80
2021/11/30 12:47:00;;;;;;;0.60;0.20;;;9.10;93.80;;;;;;5984791;23;20027;-78
2021/11/30 12:49:30;;;;;;;0.25;0.10;;;9.00;93.80;;;;;;5985548;23;20421;-78
2021/11/30 12:52:15;;;;;;;0.20;0.10;;;9.00;93.80;;;;;;6030546;23;20021;-79
2021/11/30 12:54:46;;;;;;;1.67;0.17;;;9.00;93.80;;;;;;6063908;23;20011;-80
2021/11/30 12:57:18;;;;;;;0.10;0.10;;;9.00;93.70;;;;;;6074996;23;20019;-79
2021/11/30 12:59:52;;;;;;;0.73;0.20;;;9.00;93.70;;;;;;6094914;23;20025;-77
2021/11/30 13:02:22;;;;;;;0.43;0.10;;;9.00;93.80;;;;;;6093533;23;20374;-79
2021/11/30 13:04:49;;;;;;;0.10;0.10;;;8.90;93.80;;;;;;6093568;23;20018;-79
2021/11/30 13:07:28;;;;;;;0.10;0.10;;;8.90;93.80;;;;;;6113778;23;20449;-81
2021/11/30 13:10:08;;;;;;;0.32;0.20;;;8.90;93.80;;;;;;6096959;23;20037;-81
2021/11/30 13:12:34;;;;;;;0.17;0.17;;;8.90;93.80;;;;;;6122145;23;20450;-78
2021/11/30 13:15:05;;;;;;;0.10;0.10;;;9.00;93.80;;;;;;6098275;23;20014;-79
2021/11/30 13:17:36;;;;;;;0.10;0.10;;;9.00;93.80;;;;;;6162026;23;20067;-78
2021/11/30 13:20:10;;;;;;;0.00;0.00;;;9.00;93.80;;;;;;6214422;23;20019;-80